createdAt,value
2022-10-26T00:01:15.397Z,22.08
2022-10-26T00:03:47.538Z,21.55
2022-10-26T00:06:44.686Z,17.65
2022-10-26T00:09:29.333Z,20.42
2022-10-26T00:12:10.853Z,16.15
2022-10-26T00:14:37.824Z,24.65
2022-10-26T00:17:10.620Z,39.38
2022-10-26T00:19:39.823Z,36.43
2022-10-26T00:22:21.194Z,17.52
2022-10-26T00:25:03.185Z,19.38
2022-10-26T00:27:50.527Z,19.48
2022-10-26T00:30:39.384Z,21.58
2022-10-26T00:33:30.336Z,17.88
2022-10-26T00:36:09.773Z,19.63
2022-10-26T00:38:38.247Z,22.77
2022-10-26T00:41:06.390Z,17.15
2022-10-26T00:43:40.196Z,21.08
2022-10-26T00:46:37.878Z,27.33
2022-10-26T00:49:21.450Z,27.13
2022-10-26T00:51:54.108Z,21.23
2022-10-26T00:54:33.791Z,16.95
2022-10-26T00:57:01.856Z,14.13
2022-10-26T00:59:57.537Z,28.90
2022-10-26T01:02:35.538Z,13.55
2022-10-26T01:05:06.539Z,26.98
2022-10-26T01:07:43.973Z,33.95
2022-10-26T01:10:34.694Z,29.70
2022-10-26T01:13:02.957Z,26.17
2022-10-26T01:16:27.592Z,37.67
2022-10-26T01:19:31.778Z,35.50
2022-10-26T01:22:21.107Z,21.10
2022-10-26T01:25:07.478Z,16.58
2022-10-26T01:28:01.094Z,19.85
2022-10-26T01:30:44.556Z,22.75
2022-10-26T01:33:50.458Z,15.63
2022-10-26T01:37:00.120Z,16.48
2022-10-26T01:40:11.576Z,19.27
2022-10-26T01:42:57.534Z,15.43
2022-10-26T01:45:28.289Z,16.05
2022-10-26T01:47:56.938Z,13.93
2022-10-26T01:50:25.024Z,16.33
2022-10-26T01:52:52.373Z,14.27
2022-10-26T01:55:47.743Z,14.23
2022-10-26T01:59:01.359Z,18.80
2022-10-26T02:01:32.451Z,14.68
2022-10-26T02:04:30.065Z,11.48
2022-10-26T02:07:35.925Z,18.52
2022-10-26T02:10:32.925Z,13.45
2022-10-26T02:13:41.317Z,16.08
2022-10-26T02:16:28.931Z,15.13
2022-10-26T02:19:44.894Z,16.10
2022-10-26T02:22:19.692Z,13.98
2022-10-26T02:25:16.097Z,14.93
2022-10-26T02:28:09.039Z,15.13
2022-10-26T02:30:53.016Z,17.45
2022-10-26T02:36:45.478Z,17.05
2022-10-26T02:39:17.804Z,16.23
2022-10-26T02:41:55.397Z,15.68
2022-10-26T02:44:30.708Z,17.02
2022-10-26T02:47:31.359Z,15.23
2022-10-26T02:49:58.542Z,13.63
2022-10-26T02:53:03.304Z,15.68
2022-10-26T02:55:37.222Z,12.85
2022-10-26T02:58:11.840Z,11.18
2022-10-26T03:00:42.896Z,11.07
2022-10-26T03:03:28.187Z,15.13
2022-10-26T03:05:55.209Z,17.23
2022-10-26T03:08:26.296Z,27.17
2022-10-26T03:11:07.367Z,16.48
2022-10-26T03:13:35.479Z,12.95
2022-10-26T03:16:03.427Z,13.27
2022-10-26T03:18:30.314Z,14.65
2022-10-26T03:20:58.524Z,13.75
2022-10-26T03:23:25.567Z,14.60
2022-10-26T03:26:16.500Z,15.38
2022-10-26T03:28:44.623Z,21.35
2022-10-26T03:31:41.517Z,15.90
2022-10-26T03:34:10.378Z,19.42
2022-10-26T03:36:38.395Z,21.80
2022-10-26T03:39:13.573Z,16.45
2022-10-26T03:41:46.672Z,13.80
2022-10-26T03:44:32.142Z,24.90
2022-10-26T03:47:05.229Z,18.40
2022-10-26T03:49:32.239Z,18.13
2022-10-26T03:51:59.378Z,18.83
2022-10-26T03:54:28.289Z,15.65
2022-10-26T03:57:20.536Z,15.75
2022-10-26T04:00:03.684Z,15.00
2022-10-26T04:02:32.828Z,16.35
2022-10-26T04:05:06.418Z,13.85
2022-10-26T04:10:14.113Z,13.90
2022-10-26T04:13:03.899Z,13.80
2022-10-26T04:15:38.116Z,13.27
2022-10-26T04:18:15.173Z,14.90
2022-10-26T04:20:55.228Z,15.20
2022-10-26T04:23:45.466Z,15.73
2022-10-26T04:26:12.302Z,11.40
2022-10-26T04:28:48.388Z,9.48
2022-10-26T04:31:17.087Z,9.05
2022-10-26T04:33:47.088Z,9.85
2022-10-26T04:36:21.077Z,12.18
2022-10-26T04:38:49.315Z,12.82
2022-10-26T04:41:20.415Z,11.45
2022-10-26T04:43:55.464Z,15.85
2022-10-26T04:46:24.488Z,15.63
2022-10-26T04:48:54.534Z,16.83
2022-10-26T04:51:21.589Z,14.43
2022-10-26T04:53:49.577Z,15.15
2022-10-26T04:56:17.519Z,15.43
2022-10-26T04:58:45.482Z,16.52
2022-10-26T05:01:13.071Z,11.48
2022-10-26T05:03:50.895Z,13.20
2022-10-26T05:06:20.542Z,23.42
2022-10-26T05:08:48.607Z,12.32
2022-10-26T05:11:20.574Z,13.68
2022-10-26T05:14:13.398Z,13.35
2022-10-26T05:16:51.816Z,11.15
2022-10-26T05:19:23.775Z,15.35
2022-10-26T05:21:54.961Z,20.48
2022-10-26T05:24:22.118Z,11.90
2022-10-26T05:26:51.193Z,12.30
2022-10-26T05:29:18.147Z,24.77
2022-10-26T05:31:48.454Z,18.13
2022-10-26T05:34:16.447Z,15.18
2022-10-26T05:36:44.465Z,14.13
2022-10-26T05:39:14.413Z,16.02
2022-10-26T05:41:41.549Z,15.57
2022-10-26T05:44:14.303Z,13.75
2022-10-26T05:46:42.691Z,16.42
2022-10-26T05:49:09.767Z,14.57
2022-10-26T05:51:37.916Z,13.35
2022-10-26T05:54:10.311Z,18.13
2022-10-26T05:56:40.859Z,18.38
2022-10-26T05:59:14.472Z,17.52
2022-10-26T06:04:43.462Z,15.13
2022-10-26T06:07:28.897Z,17.08
2022-10-26T06:09:56.087Z,20.10
2022-10-26T06:12:25.733Z,16.60
2022-10-26T06:14:54.188Z,13.60
2022-10-26T06:17:46.817Z,15.20
2022-10-26T06:20:22.593Z,17.75
2022-10-26T06:23:04.759Z,14.50
2022-10-26T06:26:18.215Z,12.70
2022-10-26T06:29:18.300Z,14.82
2022-10-26T06:31:45.985Z,15.52
2022-10-26T06:34:33.463Z,13.63
2022-10-26T06:37:07.990Z,13.20
2022-10-26T06:39:48.861Z,16.00
2022-10-26T06:42:18.999Z,18.02
2022-10-26T06:44:47.348Z,18.50
2022-10-26T06:47:53.792Z,16.40
2022-10-26T06:50:50.486Z,17.33
2022-10-26T06:53:22.661Z,17.10
2022-10-26T06:55:51.210Z,16.58
2022-10-26T06:58:33.066Z,18.75
2022-10-26T07:01:02.548Z,23.42
2022-10-26T07:03:31.620Z,22.85
2022-10-26T07:06:05.517Z,22.42
2022-10-26T07:08:34.588Z,27.85
2022-10-26T07:11:02.823Z,19.90
2022-10-26T07:13:37.663Z,19.45
2022-10-26T07:16:05.857Z,19.10
2022-10-26T07:18:40.117Z,22.35
2022-10-26T07:21:08.186Z,26.08
2022-10-26T07:23:38.198Z,39.72
2022-10-26T07:26:05.337Z,25.75
2022-10-26T07:28:32.511Z,18.77
2022-10-26T07:31:00.542Z,23.88
2022-10-26T07:33:28.598Z,21.88
2022-10-26T07:35:59.861Z,19.23
2022-10-26T07:38:26.870Z,19.48
2022-10-26T07:41:05.302Z,16.25
2022-10-26T07:43:34.378Z,18.95
2022-10-26T07:46:20.333Z,15.60
2022-10-26T07:48:55.616Z,14.32
2022-10-26T07:51:23.845Z,13.73
2022-10-26T07:53:51.006Z,13.40
2022-10-26T07:56:21.205Z,12.13
2022-10-26T07:58:49.448Z,14.80
2022-10-26T08:01:18.659Z,17.98
2022-10-26T08:03:45.934Z,19.42
2022-10-26T08:06:12.987Z,13.27
2022-10-26T08:08:47.795Z,11.93
2022-10-26T08:11:20.678Z,14.15
2022-10-26T08:13:47.965Z,14.37
2022-10-26T08:16:21.757Z,10.75
2022-10-26T08:21:39.115Z,9.27
2022-10-26T08:24:08.496Z,11.15
2022-10-26T08:26:38.751Z,7.15
2022-10-26T08:29:09.946Z,8.38
2022-10-26T08:31:43.081Z,9.13
2022-10-26T08:34:16.999Z,9.63
2022-10-26T08:37:03.374Z,7.65
2022-10-26T08:39:31.264Z,6.97
2022-10-26T08:42:35.289Z,7.90
2022-10-26T08:45:30.620Z,9.32
2022-10-26T08:48:10.741Z,5.25
2022-10-26T08:50:45.538Z,7.18
2022-10-26T08:53:22.986Z,7.43
2022-10-26T08:56:23.515Z,5.40
2022-10-26T08:58:58.855Z,5.47
2022-10-26T09:01:39.870Z,6.80
2022-10-26T09:04:13.162Z,4.75
2022-10-26T09:07:21.694Z,4.10
2022-10-26T09:10:08.371Z,4.07
2022-10-26T09:13:12.521Z,3.67
2022-10-26T09:16:14.132Z,4.50
2022-10-26T09:18:53.731Z,4.93
2022-10-26T09:21:44.277Z,4.28
2022-10-26T09:24:32.814Z,3.90
2022-10-26T09:27:29.113Z,3.83
2022-10-26T09:30:22.277Z,6.93
2022-10-26T09:33:24.499Z,5.90
2022-10-26T09:36:03.914Z,4.80
2022-10-26T09:38:33.511Z,5.20
2022-10-26T09:41:06.955Z,5.05
2022-10-26T09:44:10.386Z,6.18
2022-10-26T09:46:52.153Z,4.57
2022-10-26T09:49:26.942Z,2.80
2022-10-26T09:51:54.170Z,3.65
2022-10-26T09:54:23.229Z,5.45
2022-10-26T09:56:58.217Z,5.72
2022-10-26T09:59:26.572Z,4.05
2022-10-26T10:01:55.152Z,3.83
2022-10-26T10:04:24.417Z,5.28
2022-10-26T10:07:13.724Z,4.78
2022-10-26T10:09:42.837Z,5.97
2022-10-26T10:12:20.774Z,3.58
2022-10-26T10:15:00.019Z,3.08
2022-10-26T10:17:34.286Z,3.63
2022-10-26T10:20:22.916Z,3.95
2022-10-26T10:23:04.028Z,3.03
2022-10-26T10:25:39.172Z,4.13
2022-10-26T10:28:33.775Z,4.68
2022-10-26T10:31:19.035Z,5.53
2022-10-26T10:33:53.474Z,5.03
2022-10-26T10:36:26.249Z,2.17
2022-10-26T10:38:54.482Z,2.57
2022-10-26T10:41:31.380Z,2.78
2022-10-26T10:44:23.297Z,3.88
2022-10-26T10:47:04.930Z,3.63
2022-10-26T10:49:39.495Z,3.95
2022-10-26T10:52:24.363Z,2.88
2022-10-26T10:55:25.565Z,4.40
2022-10-26T10:58:05.589Z,3.08
2022-10-26T11:00:37.760Z,5.15
2022-10-26T11:03:46.158Z,1.88
2022-10-26T11:06:29.341Z,2.15
2022-10-26T11:09:13.993Z,2.95
2022-10-26T11:11:58.701Z,2.22
2022-10-26T11:14:31.736Z,1.58
2022-10-26T11:17:08.776Z,2.33
2022-10-26T11:19:42.426Z,2.65
2022-10-26T11:22:16.456Z,2.70
2022-10-26T11:25:19.259Z,4.05
2022-10-26T11:27:53.149Z,3.70
2022-10-26T11:30:31.037Z,3.10
2022-10-26T11:33:21.406Z,2.20
2022-10-26T11:36:17.289Z,2.95
2022-10-26T11:38:57.494Z,3.05
2022-10-26T11:41:50.439Z,3.50
2022-10-26T11:44:24.142Z,3.70
2022-10-26T11:47:04.213Z,1.92
2022-10-26T11:50:17.164Z,2.78
2022-10-26T11:53:17.935Z,3.78
2022-10-26T11:55:54.574Z,3.55
2022-10-26T11:58:28.507Z,2.80
2022-10-26T12:01:05.063Z,2.78
2022-10-26T12:03:43.183Z,1.85
2022-10-26T12:06:12.175Z,1.85
2022-10-26T12:09:01.877Z,3.50
2022-10-26T12:11:42.776Z,4.07
2022-10-26T12:14:35.944Z,2.67
2022-10-26T12:17:24.209Z,2.30
2022-10-26T12:19:51.348Z,3.08
2022-10-26T12:22:23.896Z,4.32
2022-10-26T12:25:20.295Z,4.30
2022-10-26T12:30:20.064Z,2.53
2022-10-26T12:32:52.098Z,3.80
2022-10-26T12:35:33.097Z,8.35
2022-10-26T12:38:23.760Z,6.53
2022-10-26T12:41:22.392Z,2.95
2022-10-26T12:43:56.506Z,1.90
2022-10-26T12:46:30.104Z,2.65
2022-10-26T12:49:00.241Z,1.80
2022-10-26T12:51:27.210Z,3.72
2022-10-26T12:54:12.743Z,3.55
2022-10-26T12:57:00.739Z,2.65
2022-10-26T13:00:06.140Z,5.50
2022-10-26T13:02:51.339Z,3.13
2022-10-26T13:05:36.523Z,2.35
2022-10-26T13:08:10.454Z,2.58
2022-10-26T13:10:40.828Z,3.72
2022-10-26T13:13:24.402Z,2.78
2022-10-26T13:15:56.668Z,4.30
2022-10-26T13:18:26.222Z,1.98
2022-10-26T13:21:18.697Z,2.45
2022-10-26T13:23:53.594Z,3.55
2022-10-26T13:26:26.286Z,2.22
2022-10-26T13:29:00.639Z,5.72
2022-10-26T13:31:33.524Z,5.00
2022-10-26T13:34:29.025Z,3.23
2022-10-26T13:37:27.924Z,4.55
2022-10-26T13:40:12.427Z,14.20
2022-10-26T13:43:03.654Z,6.05
2022-10-26T13:45:50.840Z,3.17
2022-10-26T13:48:31.784Z,3.80
2022-10-26T13:51:04.384Z,3.80
2022-10-26T13:53:52.413Z,3.37
2022-10-26T13:56:38.257Z,5.03
2022-10-26T13:59:10.771Z,6.65
2022-10-26T14:02:23.718Z,4.80
2022-10-26T14:05:06.886Z,3.15
2022-10-26T14:07:58.448Z,3.42
2022-10-26T14:10:45.908Z,2.90
2022-10-26T14:13:22.288Z,3.25
2022-10-26T14:15:50.867Z,4.40
2022-10-26T14:18:31.457Z,4.80
2022-10-26T14:21:16.348Z,4.55
2022-10-26T14:24:07.833Z,5.57
2022-10-26T14:26:42.193Z,12.68
2022-10-26T14:29:21.554Z,6.15
2022-10-26T14:32:00.744Z,10.82
2022-10-26T14:34:38.917Z,9.50
2022-10-26T14:37:06.163Z,5.60
2022-10-26T14:39:43.999Z,7.15
2022-10-26T14:42:34.643Z,7.30
2022-10-26T14:45:03.313Z,16.08
2022-10-26T14:47:35.901Z,13.90
2022-10-26T14:50:18.750Z,23.50
2022-10-26T14:52:52.250Z,11.05
2022-10-26T14:57:52.474Z,13.95
2022-10-26T15:00:26.707Z,7.10
2022-10-26T15:02:57.962Z,10.02
2022-10-26T15:05:35.526Z,6.38
2022-10-26T15:08:04.992Z,4.90
2022-10-26T15:13:44.290Z,4.75
2022-10-26T15:16:20.750Z,42.08
2022-10-26T15:18:52.995Z,7.43
2022-10-26T15:21:37.202Z,9.65
2022-10-26T15:24:15.239Z,7.10
2022-10-26T15:26:44.330Z,5.15
2022-10-26T15:29:44.657Z,7.32
2022-10-26T15:32:33.137Z,7.82
2022-10-26T15:35:19.309Z,4.75
2022-10-26T15:37:55.739Z,3.30
2022-10-26T15:42:58.669Z,6.47
2022-10-26T15:45:36.866Z,7.28
2022-10-26T15:48:32.329Z,8.25
2022-10-26T15:51:01.320Z,3.95
2022-10-26T15:53:28.499Z,6.38
2022-10-26T15:56:00.730Z,6.10
2022-10-26T15:58:32.210Z,6.05
2022-10-26T16:01:05.713Z,7.72
2022-10-26T16:03:33.894Z,5.90
2022-10-26T16:06:16.454Z,10.52
2022-10-26T16:08:53.247Z,7.75
2022-10-26T16:11:20.969Z,5.50
2022-10-26T16:16:26.937Z,15.43
2022-10-26T16:19:06.412Z,9.35
2022-10-26T16:21:42.139Z,5.60
2022-10-26T16:24:10.438Z,3.45
2022-10-26T16:26:39.505Z,4.80
2022-10-26T16:29:09.758Z,3.95
2022-10-26T16:31:43.019Z,3.30
2022-10-26T16:34:11.473Z,5.07
2022-10-26T16:37:03.177Z,5.40
2022-10-26T16:39:30.235Z,4.57
2022-10-26T16:42:00.378Z,3.30
2022-10-26T16:44:27.955Z,6.75
2022-10-26T16:46:54.987Z,4.20
2022-10-26T16:49:24.165Z,4.28
2022-10-26T16:51:52.952Z,3.03
2022-10-26T16:54:20.010Z,3.28
2022-10-26T16:56:47.134Z,4.65
2022-10-26T16:59:14.653Z,4.55
2022-10-26T17:01:46.175Z,5.10
2022-10-26T17:04:19.857Z,4.60
2022-10-26T17:06:47.393Z,4.10
2022-10-26T17:09:15.944Z,5.30
2022-10-26T17:11:43.183Z,3.97
2022-10-26T17:14:13.604Z,6.22
2022-10-26T17:16:41.296Z,7.65
2022-10-26T17:19:08.783Z,5.15
2022-10-26T17:21:42.232Z,3.72
2022-10-26T17:24:14.274Z,4.55
2022-10-26T17:26:53.749Z,5.75
2022-10-26T17:29:22.533Z,3.92
2022-10-26T17:31:58.870Z,6.00
2022-10-26T17:34:26.693Z,2.97
2022-10-26T17:36:55.964Z,5.30
2022-10-26T17:39:23.458Z,3.15
2022-10-26T17:41:50.974Z,3.75
2022-10-26T17:44:19.022Z,3.65
2022-10-26T17:46:47.590Z,4.88
2022-10-26T17:49:19.766Z,4.15
2022-10-26T17:54:30.954Z,5.00
2022-10-26T17:57:01.260Z,4.78
2022-10-26T17:59:36.017Z,11.32
2022-10-26T18:02:04.205Z,12.98
2022-10-26T18:05:09.074Z,6.45
2022-10-26T18:07:38.678Z,7.63
2022-10-26T18:10:26.308Z,4.75
2022-10-26T18:12:56.972Z,5.43
2022-10-26T18:15:54.424Z,5.63
2022-10-26T18:18:35.416Z,4.53
2022-10-26T18:21:23.733Z,5.15
2022-10-26T18:24:48.419Z,4.53
2022-10-26T18:27:18.898Z,4.65
2022-10-26T18:30:12.575Z,4.95
2022-10-26T18:32:46.165Z,5.70
2022-10-26T18:35:16.043Z,4.00
2022-10-26T18:37:45.775Z,5.00
2022-10-26T18:40:24.500Z,7.28
2022-10-26T18:42:59.942Z,5.20
2022-10-26T18:45:39.154Z,5.82
2022-10-26T18:48:25.796Z,6.90
2022-10-26T18:50:53.332Z,8.10
2022-10-26T18:53:35.341Z,8.70
2022-10-26T18:56:10.985Z,9.50
2022-10-26T18:58:59.612Z,10.23
2022-10-26T19:01:32.062Z,9.75
2022-10-26T19:04:03.953Z,7.78
2022-10-26T19:06:44.178Z,7.22
2022-10-26T19:09:11.973Z,6.00
2022-10-26T19:11:39.859Z,11.38
2022-10-26T19:14:14.315Z,22.38
2022-10-26T19:16:46.398Z,28.40
2022-10-26T19:19:18.735Z,9.07
2022-10-26T19:21:49.312Z,14.05
2022-10-26T19:24:21.985Z,20.95
2022-10-26T19:26:57.828Z,7.05
2022-10-26T19:29:29.773Z,15.15
2022-10-26T19:32:24.658Z,11.63
2022-10-26T19:34:53.964Z,23.17
2022-10-26T19:37:28.215Z,46.45
2022-10-26T19:40:11.011Z,40.78
2022-10-26T19:42:39.888Z,34.60
2022-10-26T19:45:09.815Z,25.30
2022-10-26T19:47:53.487Z,20.92
2022-10-26T19:50:28.780Z,17.08
2022-10-26T19:52:58.085Z,17.77
2022-10-26T19:55:28.170Z,29.75
2022-10-26T19:58:28.467Z,17.52
2022-10-26T20:01:02.237Z,13.98
2022-10-26T20:03:43.595Z,14.25
2022-10-26T20:06:24.854Z,13.40
2022-10-26T20:09:03.535Z,12.63
2022-10-26T20:11:44.370Z,12.35
2022-10-26T20:14:27.223Z,12.63
2022-10-26T20:16:58.556Z,8.15
2022-10-26T20:19:27.953Z,9.57
2022-10-26T20:22:01.469Z,11.63
2022-10-26T20:24:42.448Z,13.45
2022-10-26T20:27:20.214Z,30.48
2022-10-26T20:29:48.907Z,18.23
2022-10-26T20:32:17.731Z,13.82
2022-10-26T20:35:02.664Z,12.30
2022-10-26T20:37:35.501Z,9.60
2022-10-26T20:40:03.414Z,12.73
2022-10-26T20:42:33.668Z,14.25
2022-10-26T20:45:10.743Z,16.70
2022-10-26T20:47:44.157Z,11.68
2022-10-26T20:50:12.264Z,12.55
2022-10-26T20:52:52.373Z,14.38
2022-10-26T20:55:27.923Z,14.15
2022-10-26T20:58:06.213Z,16.83
2022-10-26T21:00:43.682Z,15.27
2022-10-26T21:03:13.073Z,16.73
2022-10-26T21:05:46.762Z,20.60
2022-10-26T21:10:55.435Z,18.90
2022-10-26T21:13:28.616Z,17.98
2022-10-26T21:16:12.342Z,16.92
2022-10-26T21:18:45.807Z,16.60
2022-10-26T21:21:12.906Z,13.70
2022-10-26T21:23:43.926Z,16.23
2022-10-26T21:26:19.225Z,15.48
2022-10-26T21:28:47.529Z,17.55
2022-10-26T21:31:45.360Z,14.15
2022-10-26T21:34:42.159Z,14.40
2022-10-26T21:37:12.298Z,13.25
2022-10-26T21:39:48.364Z,13.88
2022-10-26T21:42:15.528Z,15.05
2022-10-26T21:44:47.060Z,19.27
2022-10-26T21:47:18.197Z,18.17
2022-10-26T21:49:53.231Z,19.90
2022-10-26T21:52:20.444Z,16.20
2022-10-26T21:54:50.898Z,15.50
2022-10-26T21:57:24.622Z,17.30
2022-10-26T22:02:31.926Z,16.13
2022-10-26T22:05:06.434Z,18.25
2022-10-26T22:07:33.395Z,10.85
2022-10-26T22:10:16.774Z,13.20
2022-10-26T22:13:00.919Z,18.63
2022-10-26T22:15:37.385Z,17.48
2022-10-26T22:18:21.665Z,14.98
2022-10-26T22:20:59.724Z,20.40
2022-10-26T22:23:46.030Z,17.67
2022-10-26T22:26:22.388Z,22.30
2022-10-26T22:28:57.803Z,20.77
2022-10-26T22:31:39.739Z,18.70
2022-10-26T22:34:13.934Z,21.52
2022-10-26T22:36:53.399Z,18.73
2022-10-26T22:39:25.620Z,18.42
2022-10-26T22:42:05.639Z,21.02
2022-10-26T22:44:34.771Z,20.55
2022-10-26T22:47:07.704Z,28.48
2022-10-26T22:49:38.577Z,22.65
2022-10-26T22:52:05.827Z,17.77
2022-10-26T22:55:08.788Z,20.70
2022-10-26T22:57:43.929Z,19.90
2022-10-26T23:00:16.924Z,17.40
2022-10-26T23:02:43.842Z,18.92
2022-10-26T23:05:17.697Z,16.10
2022-10-26T23:07:51.953Z,22.63
2022-10-26T23:10:29.623Z,24.50
2022-10-26T23:13:14.700Z,17.13
2022-10-26T23:15:52.777Z,18.13
2022-10-26T23:18:33.017Z,26.60
2022-10-26T23:21:12.456Z,23.17
2022-10-26T23:23:42.012Z,18.00
2022-10-26T23:26:40.555Z,21.30
2022-10-26T23:29:29.063Z,22.67
2022-10-26T23:32:01.223Z,22.25
2022-10-26T23:34:42.740Z,22.20
2022-10-26T23:37:19.943Z,22.35
2022-10-26T23:39:52.937Z,22.50
2022-10-26T23:42:39.217Z,21.00
2022-10-26T23:45:09.549Z,25.42
2022-10-26T23:47:44.613Z,23.90
2022-10-26T23:50:17.799Z,24.20
2022-10-26T23:52:49.059Z,29.02
2022-10-26T23:55:17.443Z,25.50
2022-10-26T23:57:45.357Z,30.65
